Time;durP1;ratioP1;P1;durP2;ratioP2;P2;SDS_P1;SDS_P2;PMS_P1;PMS_P2;Temp;Humidity;BMP_temperature;BMP_pressure;BME280_temperature;BME280_humidity;BME280_pressure;Samples;Min_cycle;Max_cycle;Signal;HPM_P1;HPM_P2
2022/09/02 00:00:52;;;;;;;3.63;2.30;;;14.80;98.00;;;;;;5011715;28;20468;-91
2022/09/02 00:03:21;;;;;;;2.90;1.80;;;14.80;98.00;;;;;;5011465;28;20466;-92
2022/09/02 00:05:48;;;;;;;3.37;2.50;;;14.70;98.00;;;;;;5011793;28;20463;-91
2022/09/02 00:08:15;;;;;;;4.30;2.17;;;14.60;98.00;;;;;;5010908;28;20459;-91
2022/09/02 00:10:43;;;;;;;3.77;2.23;;;14.60;98.00;;;;;;5011703;28;20468;-91
2022/09/02 00:13:13;;;;;;;4.57;2.30;;;14.80;98.00;;;;;;5011520;28;20493;-91
2022/09/02 00:15:41;;;;;;;3.70;2.87;;;14.70;98.00;;;;;;5011583;28;20969;-91
2022/09/02 00:18:11;;;;;;;3.70;2.47;;;14.80;98.00;;;;;;5011127;28;20459;-91
2022/09/02 00:20:41;;;;;;;4.20;2.20;;;14.60;98.00;;;;;;5011599;28;20482;-91
2022/09/02 00:23:09;;;;;;;2.90;2.37;;;14.60;98.00;;;;;;5011660;28;20840;-91
2022/09/02 00:25:37;;;;;;;3.83;2.30;;;14.60;98.00;;;;;;5012114;28;20473;-92
2022/09/02 00:28:05;;;;;;;3.53;2.20;;;14.50;98.00;;;;;;5012846;28;20963;-91
2022/09/02 00:30:32;;;;;;;2.77;2.30;;;14.40;98.00;;;;;;5016171;28;20531;-93
2022/09/02 00:33:00;;;;;;;3.20;2.23;;;14.40;98.00;;;;;;5015772;28;20501;-90
2022/09/02 00:35:27;;;;;;;4.20;2.73;;;14.40;98.00;;;;;;5016297;28;20970;-93
2022/09/02 00:37:55;;;;;;;3.63;2.70;;;14.30;98.00;;;;;;5015690;28;20471;-91
2022/09/02 00:40:23;;;;;;;5.60;2.97;;;14.40;98.00;;;;;;5016311;28;20462;-92
2022/09/02 00:42:50;;;;;;;3.73;2.33;;;14.40;98.00;;;;;;5016224;28;20483;-91
2022/09/02 00:45:19;;;;;;;4.50;2.23;;;14.30;98.00;;;;;;5016905;28;20834;-92
2022/09/02 00:47:49;;;;;;;3.57;2.40;;;14.10;98.00;;;;;;5015217;28;20481;-90
2022/09/02 00:50:20;;;;;;;4.60;2.90;;;14.00;98.00;;;;;;5015107;28;20493;-91
2022/09/02 00:52:50;;;;;;;4.10;2.33;;;14.00;98.00;;;;;;5014793;28;20866;-91
2022/09/02 00:55:21;;;;;;;2.23;1.90;;;14.10;98.00;;;;;;5014433;28;20531;-92
2022/09/02 00:57:53;;;;;;;3.20;2.20;;;14.10;98.00;;;;;;5014182;28;20463;-90
2022/09/02 01:00:24;;;;;;;3.70;2.27;;;14.10;98.00;;;;;;5014927;28;20552;-90
2022/09/02 01:02:54;;;;;;;4.30;2.13;;;14.20;98.00;;;;;;5014705;28;20852;-91
2022/09/02 01:05:23;;;;;;;3.03;2.00;;;14.20;98.00;;;;;;5014415;28;20462;-92
2022/09/02 01:07:52;;;;;;;3.53;2.57;;;14.30;98.00;;;;;;5013942;28;20648;-92
2022/09/02 01:10:22;;;;;;;4.20;2.23;;;14.20;98.00;;;;;;5014341;28;20476;-90
2022/09/02 01:12:54;;;;;;;4.10;2.30;;;14.00;98.00;;;;;;5014399;28;20498;-92
2022/09/02 01:15:21;;;;;;;2.90;2.17;;;14.10;98.00;;;;;;5014503;28;20517;-91
2022/09/02 01:17:51;;;;;;;2.80;2.20;;;14.10;98.00;;;;;;5013780;28;20961;-92
2022/09/02 01:20:20;;;;;;;2.90;2.37;;;14.10;98.00;;;;;;5014559;28;20478;-92
2022/09/02 01:22:50;;;;;;;4.87;2.67;;;13.90;98.00;;;;;;5014210;28;20482;-90
2022/09/02 01:25:21;;;;;;;3.60;2.30;;;13.80;98.00;;;;;;5014063;28;20468;-91
2022/09/02 01:27:49;;;;;;;2.63;2.07;;;13.70;98.00;;;;;;5013943;28;20477;-91
2022/09/02 01:30:19;;;;;;;2.87;2.20;;;13.80;98.00;;;;;;5014261;28;20473;-91
2022/09/02 01:32:46;;;;;;;3.53;2.17;;;13.70;98.00;;;;;;5014197;28;20501;-91
2022/09/02 01:35:14;;;;;;;3.20;2.10;;;13.60;98.00;;;;;;5013890;28;20469;-91
2022/09/02 01:37:41;;;;;;;2.63;2.10;;;13.60;98.00;;;;;;5013623;28;20963;-91
2022/09/02 01:40:13;;;;;;;2.90;1.90;;;13.60;98.00;;;;;;5014007;28;20465;-91
2022/09/02 01:42:43;;;;;;;3.83;2.73;;;13.50;98.00;;;;;;5014158;28;20485;-91
2022/09/02 01:45:11;;;;;;;4.80;2.30;;;13.60;98.00;;;;;;5013779;28;20545;-91
2022/09/02 01:47:38;;;;;;;3.30;2.40;;;13.60;98.00;;;;;;5013308;28;20968;-91
2022/09/02 01:50:07;;;;;;;5.50;2.53;;;13.70;98.00;;;;;;5013637;28;20474;-92
2022/09/02 01:52:35;;;;;;;3.03;2.20;;;13.60;98.00;;;;;;5013604;28;20516;-91
2022/09/02 01:55:02;;;;;;;4.10;2.50;;;13.50;98.00;;;;;;5013475;28;20889;-91
2022/09/02 01:57:30;;;;;;;3.70;2.30;;;13.50;98.00;;;;;;5013277;28;20461;-91
2022/09/02 02:00:00;;;;;;;2.60;1.97;;;13.30;98.00;;;;;;5013440;28;20463;-91
2022/09/02 02:02:27;;;;;;;4.57;2.70;;;13.40;98.00;;;;;;5013472;28;20562;-91
2022/09/02 02:04:54;;;;;;;3.00;2.03;;;13.60;98.00;;;;;;5013199;28;20467;-91
2022/09/02 02:07:24;;;;;;;4.63;2.40;;;13.70;98.00;;;;;;5013083;28;20485;-91
2022/09/02 02:09:51;;;;;;;3.70;2.30;;;13.70;98.00;;;;;;5013533;28;20488;-91
2022/09/02 02:12:19;;;;;;;4.27;2.40;;;13.60;98.00;;;;;;5013048;28;20495;-91
2022/09/02 02:14:48;;;;;;;3.37;2.50;;;13.40;98.00;;;;;;5013413;28;20474;-91
2022/09/02 02:17:15;;;;;;;2.67;1.90;;;13.30;98.00;;;;;;5012478;28;20468;-89
2022/09/02 02:19:43;;;;;;;3.30;2.40;;;13.40;98.00;;;;;;5012966;28;20810;-92
2022/09/02 02:22:12;;;;;;;6.53;2.03;;;13.40;98.00;;;;;;5012651;28;20545;-91
2022/09/02 02:24:40;;;;;;;4.07;2.43;;;13.50;98.00;;;;;;5012904;28;20469;-91
2022/09/02 02:27:07;;;;;;;2.43;2.30;;;13.40;98.00;;;;;;5012446;28;20916;-92
2022/09/02 02:29:34;;;;;;;2.90;1.93;;;13.20;98.00;;;;;;5012745;28;20470;-91
2022/09/02 02:32:03;;;;;;;9.77;2.67;;;13.30;98.00;;;;;;5012913;28;20479;-91
2022/09/02 02:34:31;;;;;;;3.40;2.30;;;13.30;98.00;;;;;;5013043;28;20476;-91
2022/09/02 02:36:58;;;;;;;2.90;2.20;;;13.20;98.00;;;;;;5012161;28;20489;-92
2022/09/02 02:39:25;;;;;;;2.73;2.00;;;13.20;98.00;;;;;;5012796;28;20521;-92
2022/09/02 02:41:52;;;;;;;4.87;2.33;;;13.20;98.00;;;;;;5012492;28;20526;-90
2022/09/02 02:44:19;;;;;;;3.40;2.20;;;13.30;98.00;;;;;;5012321;28;20467;-92
2022/09/02 02:46:46;;;;;;;3.80;2.40;;;13.30;98.00;;;;;;5012179;28;20459;-91
2022/09/02 02:49:15;;;;;;;3.83;2.20;;;13.30;98.00;;;;;;5011424;28;20465;-91
2022/09/02 02:51:42;;;;;;;3.30;2.17;;;13.30;98.00;;;;;;5011749;28;20560;-91
2022/09/02 02:54:11;;;;;;;3.03;2.30;;;13.30;98.00;;;;;;5012059;28;20496;-91
2022/09/02 02:56:38;;;;;;;4.30;2.10;;;13.20;98.00;;;;;;5012144;28;20545;-91
2022/09/02 02:59:05;;;;;;;4.83;2.10;;;13.20;98.00;;;;;;5011490;28;20471;-91
2022/09/02 03:01:33;;;;;;;8.80;2.27;;;13.10;98.00;;;;;;5012117;28;20486;-91
2022/09/02 03:04:00;;;;;;;2.33;1.80;;;13.10;98.00;;;;;;5012194;28;20466;-90
2022/09/02 03:06:29;;;;;;;3.17;2.27;;;13.10;98.00;;;;;;5012195;28;20492;-91
2022/09/02 03:08:56;;;;;;;3.70;2.50;;;13.00;98.00;;;;;;5011247;28;20968;-91
2022/09/02 03:11:26;;;;;;;2.10;2.00;;;13.10;98.00;;;;;;5011891;28;21059;-91
2022/09/02 03:13:53;;;;;;;3.27;2.27;;;13.00;98.00;;;;;;5011653;28;20476;-90
2022/09/02 03:16:21;;;;;;;3.20;1.93;;;13.00;98.00;;;;;;5011828;28;20468;-91
2022/09/02 03:18:49;;;;;;;2.30;1.83;;;13.20;98.00;;;;;;5011197;28;20462;-91
2022/09/02 03:21:18;;;;;;;4.50;1.97;;;13.10;98.00;;;;;;5011678;28;20486;-92
2022/09/02 03:23:46;;;;;;;4.13;2.60;;;13.00;98.00;;;;;;5011595;28;20473;-91
2022/09/02 03:26:16;;;;;;;3.73;2.13;;;12.90;98.00;;;;;;5011569;28;20471;-90
2022/09/02 03:28:43;;;;;;;4.00;2.30;;;12.90;98.00;;;;;;5011236;28;20633;-91
2022/09/02 03:31:15;;;;;;;4.47;2.23;;;12.80;98.00;;;;;;5011733;28;20987;-91
2022/09/02 03:33:43;;;;;;;3.43;2.30;;;12.70;98.00;;;;;;5011463;28;20497;-92
2022/09/02 03:36:20;;;;;;;2.80;2.10;;;12.80;98.00;;;;;;5011623;28;20556;-92
2022/09/02 03:38:48;;;;;;;3.40;2.40;;;12.70;98.00;;;;;;5010940;28;20465;-91
2022/09/02 03:41:15;;;;;;;3.27;2.30;;;12.70;98.00;;;;;;5011186;28;20488;-92
2022/09/02 03:43:42;;;;;;;3.03;2.60;;;12.70;98.00;;;;;;5011370;28;20546;-91
2022/09/02 03:46:10;;;;;;;3.90;2.73;;;12.70;98.00;;;;;;5011430;28;20466;-91
2022/09/02 03:48:37;;;;;;;3.27;2.10;;;12.60;98.00;;;;;;5010700;28;20552;-91
2022/09/02 03:51:04;;;;;;;4.53;2.30;;;12.70;98.00;;;;;;5011227;28;20480;-91
2022/09/02 03:53:31;;;;;;;3.83;2.07;;;12.50;98.00;;;;;;5011212;28;20488;-92
2022/09/02 03:56:05;;;;;;;3.87;2.23;;;12.40;98.00;;;;;;5011250;28;20477;-90
2022/09/02 03:58:32;;;;;;;3.03;1.93;;;12.50;98.00;;;;;;5010827;28;20830;-92
2022/09/02 04:00:59;;;;;;;4.87;2.80;;;12.50;98.00;;;;;;5011309;28;20481;-91
2022/09/02 04:03:27;;;;;;;3.53;2.07;;;12.50;98.00;;;;;;5013793;28;20470;-92
2022/09/02 04:05:54;;;;;;;2.30;2.03;;;12.60;98.00;;;;;;5015192;28;20517;-91
2022/09/02 04:08:22;;;;;;;2.30;1.80;;;12.60;98.00;;;;;;5014500;28;20452;-90
2022/09/02 04:10:49;;;;;;;4.40;2.10;;;12.70;98.00;;;;;;5015697;28;20464;-91
2022/09/02 04:13:18;;;;;;;2.10;1.80;;;12.60;98.00;;;;;;5015236;28;20495;-91
2022/09/02 04:15:47;;;;;;;4.30;2.33;;;12.50;98.00;;;;;;5015099;28;20468;-89
2022/09/02 04:18:16;;;;;;;4.07;2.30;;;12.40;98.00;;;;;;5014499;28;20468;-91
2022/09/02 04:20:44;;;;;;;5.37;2.93;;;12.40;98.00;;;;;;5015180;28;20591;-89
2022/09/02 04:23:11;;;;;;;3.03;2.23;;;12.20;98.00;;;;;;5014958;28;20465;-91
2022/09/02 04:25:41;;;;;;;7.70;2.53;;;12.10;98.00;;;;;;5014951;28;20475;-92
2022/09/02 04:28:08;;;;;;;3.10;2.00;;;12.10;98.00;;;;;;5014580;28;20918;-91
2022/09/02 04:30:38;;;;;;;2.83;2.10;;;12.10;98.00;;;;;;5015155;28;20796;-91
2022/09/02 04:33:06;;;;;;;2.70;2.27;;;12.20;98.00;;;;;;5014977;28;20493;-91
2022/09/02 04:35:34;;;;;;;2.73;2.10;;;12.40;98.00;;;;;;5014725;28;20474;-92
2022/09/02 04:38:02;;;;;;;3.30;2.17;;;12.20;98.00;;;;;;5014407;28;20477;-91
2022/09/02 04:40:30;;;;;;;1.93;1.77;;;12.20;98.00;;;;;;5014810;28;20463;-90
2022/09/02 04:42:58;;;;;;;2.37;1.80;;;12.20;98.00;;;;;;5014750;28;20572;-91
2022/09/02 04:45:25;;;;;;;3.70;2.00;;;12.10;98.00;;;;;;5014261;28;20522;-91
2022/09/02 04:47:53;;;;;;;3.97;2.20;;;12.20;98.00;;;;;;5013913;28;20461;-90
2022/09/02 04:50:20;;;;;;;2.57;2.17;;;12.20;98.00;;;;;;5014668;28;20468;-89
2022/09/02 04:52:47;;;;;;;2.33;1.60;;;12.30;98.00;;;;;;5014485;28;20484;-91
2022/09/02 04:55:15;;;;;;;3.07;2.10;;;12.20;98.00;;;;;;5014314;28;20840;-90
2022/09/02 04:57:42;;;;;;;2.40;1.90;;;12.20;98.00;;;;;;5013835;28;20558;-91
2022/09/02 05:00:10;;;;;;;2.80;2.13;;;12.20;98.00;;;;;;5014375;28;20491;-89
2022/09/02 05:02:39;;;;;;;4.00;1.70;;;12.30;98.00;;;;;;5014216;28;20488;-91
2022/09/02 05:05:09;;;;;;;3.63;2.23;;;12.20;98.00;;;;;;5014175;28;20464;-91
2022/09/02 05:07:37;;;;;;;3.13;1.80;;;12.30;98.00;;;;;;5013878;28;20562;-91
2022/09/02 05:10:05;;;;;;;5.07;2.10;;;12.20;98.00;;;;;;5014125;28;20460;-90
2022/09/02 05:12:34;;;;;;;3.50;2.10;;;12.10;98.00;;;;;;5014084;28;20481;-90
2022/09/02 05:15:01;;;;;;;2.53;1.80;;;12.20;98.00;;;;;;5013793;28;20557;-90
2022/09/02 05:17:34;;;;;;;2.60;2.43;;;12.10;98.00;;;;;;5023761;28;20529;-91
2022/09/02 05:20:01;;;;;;;1.93;1.70;;;12.20;98.00;;;;;;5025385;28;20838;-91
2022/09/02 05:22:30;;;;;;;2.50;1.80;;;12.20;98.00;;;;;;5018537;28;20499;-91
2022/09/02 05:24:57;;;;;;;3.90;2.20;;;12.10;98.00;;;;;;5017746;28;20464;-91
2022/09/02 05:27:24;;;;;;;4.23;2.47;;;12.00;98.00;;;;;;5013110;28;20561;-91
2022/09/02 05:29:54;;;;;;;3.20;2.00;;;12.10;98.00;;;;;;5014084;28;20517;-91
2022/09/02 05:32:23;;;;;;;4.33;1.73;;;12.20;98.00;;;;;;5014219;28;20484;-91
2022/09/02 05:34:50;;;;;;;2.53;1.83;;;12.20;98.00;;;;;;5013875;28;20525;-91
2022/09/02 05:37:17;;;;;;;2.47;1.67;;;12.40;98.00;;;;;;5012974;28;20969;-91
2022/09/02 05:39:46;;;;;;;4.03;2.27;;;12.40;98.00;;;;;;5013505;28;20472;-90
2022/09/02 05:42:13;;;;;;;2.00;1.80;;;12.30;98.00;;;;;;5013571;28;20497;-91
2022/09/02 05:44:43;;;;;;;2.33;1.73;;;12.50;98.00;;;;;;5013525;28;20459;-91
2022/09/02 05:47:10;;;;;;;1.90;1.70;;;12.30;98.00;;;;;;5012918;28;20990;-91
2022/09/02 05:49:38;;;;;;;3.50;2.23;;;12.30;98.00;;;;;;5013331;28;20460;-91
2022/09/02 05:52:08;;;;;;;3.00;2.10;;;12.20;98.00;;;;;;5013235;28;20489;-92
2022/09/02 05:54:38;;;;;;;2.57;2.03;;;12.30;98.00;;;;;;5013415;28;20494;-91
2022/09/02 05:57:09;;;;;;;3.10;1.80;;;12.20;98.00;;;;;;5012553;28;21056;-92
2022/09/02 05:59:40;;;;;;;2.60;2.00;;;12.40;98.00;;;;;;5013071;28;20949;-90
2022/09/02 06:02:08;;;;;;;2.70;1.90;;;12.50;98.00;;;;;;5013235;28;20523;-91
2022/09/02 06:04:38;;;;;;;3.23;2.40;;;12.50;98.00;;;;;;5012970;28;20457;-91
2022/09/02 06:07:06;;;;;;;3.43;2.00;;;12.60;98.00;;;;;;5012401;28;20468;-91
2022/09/02 06:09:33;;;;;;;3.50;2.33;;;12.60;98.00;;;;;;5013314;28;20896;-92
2022/09/02 06:12:01;;;;;;;3.10;2.23;;;12.70;98.00;;;;;;5013632;28;20996;-92
2022/09/02 06:14:29;;;;;;;5.90;2.43;;;12.70;98.00;;;;;;5013938;28;20531;-93
2022/09/02 06:16:58;;;;;;;4.07;2.43;;;12.90;98.00;;;;;;5013752;28;20470;-91
2022/09/02 06:19:27;;;;;;;3.40;2.30;;;12.90;98.00;;;;;;5016129;28;20469;-93
2022/09/02 06:21:56;;;;;;;3.77;2.30;;;13.00;98.00;;;;;;5018115;28;20485;-93
2022/09/02 06:24:24;;;;;;;3.03;1.97;;;13.00;98.00;;;;;;5015573;28;20958;-93
2022/09/02 06:26:53;;;;;;;5.03;2.53;;;13.10;98.00;;;;;;5013906;28;20460;-93
2022/09/02 06:29:21;;;;;;;2.93;2.10;;;13.20;98.00;;;;;;5014115;28;20477;-91
2022/09/02 06:31:50;;;;;;;5.03;2.67;;;13.40;98.00;;;;;;5013760;28;20485;-93
2022/09/02 06:34:20;;;;;;;4.20;2.13;;;13.50;98.00;;;;;;5014895;28;20485;-93
2022/09/02 06:36:49;;;;;;;3.27;2.60;;;13.60;98.00;;;;;;5015877;28;20466;-93
2022/09/02 06:39:20;;;;;;;4.30;2.60;;;13.60;98.00;;;;;;5016223;28;20461;-91
2022/09/02 06:41:48;;;;;;;3.90;2.50;;;13.80;98.00;;;;;;5024803;28;20482;-94
2022/09/02 06:44:18;;;;;;;2.60;2.40;;;14.10;98.00;;;;;;5027552;28;20480;-93
2022/09/02 06:46:52;;;;;;;5.30;2.50;;;14.20;98.00;;;;;;5017876;28;21000;-93
2022/09/02 06:49:23;;;;;;;3.30;2.60;;;14.30;98.00;;;;;;5014162;28;20484;-93
2022/09/02 06:51:52;;;;;;;3.80;2.40;;;14.50;98.00;;;;;;5013280;28;20490;-93
2022/09/02 06:54:22;;;;;;;4.70;2.67;;;14.70;98.00;;;;;;5012381;28;20493;-93
2022/09/02 06:56:51;;;;;;;2.80;2.20;;;14.70;98.00;;;;;;5012850;28;20446;-93
2022/09/02 06:59:19;;;;;;;4.50;2.50;;;14.80;98.00;;;;;;5013143;28;20463;-93
2022/09/02 07:01:46;;;;;;;2.77;1.97;;;15.00;98.00;;;;;;5014658;28;20539;-94
2022/09/02 07:07:06;;;;;;;2.93;2.30;;;15.10;98.00;;;;;;5012538;28;20464;-94
2022/09/02 07:09:33;;;;;;;4.10;2.67;;;15.30;98.00;;;;;;5013107;28;20470;-93
2022/09/02 07:12:02;;;;;;;4.30;2.40;;;15.50;98.00;;;;;;5011727;28;20476;-92
2022/09/02 07:14:30;;;;;;;5.50;2.00;;;15.70;98.00;;;;;;5012190;28;20479;-92
2022/09/02 07:16:58;;;;;;;2.80;1.90;;;15.90;98.00;;;;;;5012260;28;20467;-93
2022/09/02 07:19:27;;;;;;;2.03;1.70;;;15.90;98.00;;;;;;5012042;28;20470;-91
2022/09/02 07:21:54;;;;;;;2.27;2.10;;;16.10;98.00;;;;;;5012736;28;20558;-92
2022/09/02 07:24:26;;;;;;;2.47;2.03;;;16.20;98.00;;;;;;5012554;28;20451;-93
2022/09/02 07:26:55;;;;;;;4.17;2.30;;;16.40;98.00;;;;;;5013271;28;20559;-93
2022/09/02 07:29:22;;;;;;;3.37;2.30;;;16.50;98.00;;;;;;5014051;28;20471;-93
2022/09/02 07:31:49;;;;;;;3.90;2.33;;;16.60;98.00;;;;;;5034773;28;20486;-92
2022/09/02 07:34:23;;;;;;;3.20;2.37;;;16.70;98.00;;;;;;5050303;28;20493;-94
2022/09/02 07:36:53;;;;;;;2.87;2.00;;;16.90;98.00;;;;;;5041608;28;20473;-93
2022/09/02 07:39:21;;;;;;;2.57;2.00;;;17.10;98.00;;;;;;5043216;28;20544;-93
2022/09/02 07:41:55;;;;;;;2.80;1.90;;;17.30;98.00;;;;;;5039915;28;20980;-93
2022/09/02 07:44:34;;;;;;;3.40;2.00;;;17.40;98.00;;;;;;5043377;28;20458;-94
2022/09/02 07:47:21;;;;;;;3.77;2.00;;;17.60;98.00;;;;;;5037995;28;20466;-93
2022/09/02 07:50:03;;;;;;;2.60;2.10;;;17.70;98.00;;;;;;5045057;28;20457;-93
2022/09/02 07:52:49;;;;;;;2.60;2.20;;;17.80;98.00;;;;;;5067973;28;20477;-94
2022/09/02 07:55:19;;;;;;;3.83;2.10;;;18.00;98.00;;;;;;5038074;28;20540;-93
2022/09/02 07:57:46;;;;;;;3.83;2.60;;;18.00;98.00;;;;;;5017338;28;20490;-92
2022/09/02 08:00:15;;;;;;;3.63;2.50;;;18.10;98.00;;;;;;5056426;23;20500;-70
2022/09/02 08:02:43;;;;;;;3.10;2.40;;;18.20;98.00;;;;;;5043274;28;20446;-70
2022/09/02 08:05:11;;;;;;;3.23;2.30;;;18.30;98.00;;;;;;5050121;28;20453;-70
2022/09/02 08:07:38;;;;;;;2.10;1.70;;;18.40;98.00;;;;;;5050195;28;20544;-71
2022/09/02 08:10:11;;;;;;;3.70;1.93;;;18.60;98.00;;;;;;5050775;28;20462;-70
2022/09/02 08:12:42;;;;;;;3.33;2.27;;;18.80;98.00;;;;;;5051378;28;20545;-70
2022/09/02 08:15:11;;;;;;;3.57;2.23;;;18.90;98.00;;;;;;5050382;28;20818;-71
2022/09/02 08:17:39;;;;;;;2.73;2.03;;;19.10;98.00;;;;;;5034244;28;20457;-75
2022/09/02 08:20:08;;;;;;;3.00;2.20;;;19.20;98.00;;;;;;5051662;28;20464;-75
2022/09/02 08:22:36;;;;;;;3.60;2.30;;;19.40;98.00;;;;;;5051739;28;20593;-75
2022/09/02 08:25:09;;;;;;;2.60;2.10;;;19.50;98.00;;;;;;5051502;28;20504;-75
2022/09/02 08:27:38;;;;;;;2.73;2.30;;;19.60;98.00;;;;;;5051875;28;20450;-75
2022/09/02 08:30:09;;;;;;;3.47;2.00;;;19.70;98.00;;;;;;5051426;28;20454;-75
2022/09/02 08:32:37;;;;;;;2.17;1.83;;;19.90;98.00;;;;;;5051847;28;20500;-75
2022/09/02 08:35:06;;;;;;;3.20;2.13;;;20.00;98.00;;;;;;5051682;28;20494;-75
2022/09/02 08:37:34;;;;;;;4.13;2.07;;;20.10;98.00;;;;;;5051642;28;20464;-75
2022/09/02 08:40:05;;;;;;;2.33;2.10;;;20.30;98.00;;;;;;5051498;28;20516;-75
2022/09/02 08:42:37;;;;;;;3.47;2.20;;;20.40;98.00;;;;;;5051491;28;20553;-74
2022/09/02 08:45:11;;;;;;;3.03;2.07;;;20.60;98.00;;;;;;5051508;28;21036;-74
2022/09/02 08:47:42;;;;;;;4.00;2.70;;;20.80;98.00;;;;;;5051318;28;20476;-76
2022/09/02 08:50:13;;;;;;;2.60;2.00;;;20.90;97.50;;;;;;5054809;28;20453;-75
2022/09/02 08:52:46;;;;;;;2.13;1.87;;;21.00;96.10;;;;;;5055020;28;20489;-74
2022/09/02 08:55:19;;;;;;;4.13;2.30;;;21.10;95.50;;;;;;5054831;28;20489;-74
2022/09/02 08:57:48;;;;;;;3.80;2.10;;;21.20;95.20;;;;;;5055029;28;20454;-74
2022/09/02 09:00:17;;;;;;;5.43;2.30;;;21.30;93.90;;;;;;5054618;28;20548;-75
2022/09/02 09:02:56;;;;;;;2.43;2.00;;;21.40;93.70;;;;;;5037220;28;20453;-74
2022/09/02 09:05:32;;;;;;;2.30;1.90;;;21.50;91.70;;;;;;5054770;28;20445;-75
2022/09/02 09:08:06;;;;;;;2.27;2.00;;;21.60;91.30;;;;;;5037142;28;20519;-76
2022/09/02 09:10:43;;;;;;;4.33;2.17;;;21.70;90.80;;;;;;5054798;28;20453;-76
2022/09/02 09:13:29;;;;;;;2.53;1.87;;;21.90;91.00;;;;;;5037383;28;20460;-73
2022/09/02 09:16:07;;;;;;;2.00;1.93;;;22.00;89.10;;;;;;5054414;28;20485;-74
2022/09/02 09:18:39;;;;;;;2.30;1.80;;;22.20;90.70;;;;;;5054805;28;20460;-74
2022/09/02 09:21:07;;;;;;;1.80;1.70;;;22.40;88.80;;;;;;5054435;28;20495;-73
2022/09/02 09:23:38;;;;;;;2.20;1.90;;;22.50;87.40;;;;;;5054575;28;20812;-74
2022/09/02 09:26:08;;;;;;;2.83;1.90;;;22.70;87.60;;;;;;5037040;28;20453;-75
2022/09/02 09:28:41;;;;;;;2.40;2.00;;;22.80;87.60;;;;;;5054170;28;20454;-73
2022/09/02 09:31:17;;;;;;;2.17;1.80;;;22.80;85.60;;;;;;5045997;28;20462;-71
2022/09/02 09:34:02;;;;;;;3.20;1.70;;;22.90;85.80;;;;;;5054133;28;20508;-71
2022/09/02 09:36:52;;;;;;;3.37;2.17;;;23.00;85.30;;;;;;5054209;28;20462;-71
2022/09/02 09:39:28;;;;;;;1.70;1.53;;;23.10;84.80;;;;;;5048405;28;20466;-71
2022/09/02 09:41:57;;;;;;;2.47;1.97;;;23.20;84.80;;;;;;5054066;28;20821;-71
2022/09/02 09:44:46;;;;;;;2.40;1.73;;;23.40;84.80;;;;;;5053892;28;20461;-72
2022/09/02 09:47:18;;;;;;;2.90;1.87;;;23.60;83.10;;;;;;5048067;28;20465;-75
2022/09/02 09:49:47;;;;;;;1.83;1.73;;;23.80;81.80;;;;;;5053729;28;20462;-75
2022/09/02 09:52:23;;;;;;;2.10;2.00;;;23.80;80.70;;;;;;5054093;28;20465;-74
2022/09/02 09:55:18;;;;;;;2.27;1.97;;;23.90;81.70;;;;;;5053604;28;20485;-74
2022/09/02 09:57:49;;;;;;;2.33;1.93;;;24.10;79.70;;;;;;5035704;28;20464;-75
2022/09/02 10:00:22;;;;;;;2.90;1.83;;;24.20;77.50;;;;;;5052433;28;20467;-75
2022/09/02 10:02:55;;;;;;;2.50;1.90;;;24.20;77.60;;;;;;5053548;28;20469;-75
2022/09/02 10:05:33;;;;;;;1.97;1.67;;;24.30;78.90;;;;;;5053567;28;20458;-75
2022/09/02 10:08:03;;;;;;;2.10;1.90;;;24.30;77.10;;;;;;5053377;28;20457;-75
2022/09/02 10:10:32;;;;;;;2.10;1.83;;;24.40;78.60;;;;;;5053610;28;20480;-76
2022/09/02 10:13:15;;;;;;;2.13;1.83;;;24.50;76.50;;;;;;5053780;28;20446;-76
2022/09/02 10:15:49;;;;;;;2.57;2.27;;;24.50;76.80;;;;;;5053604;28;20465;-76
2022/09/02 10:18:28;;;;;;;1.80;1.73;;;24.70;75.90;;;;;;5053712;28;20515;-75
2022/09/02 10:21:04;;;;;;;2.00;1.80;;;24.80;75.40;;;;;;5053018;28;20450;-75
2022/09/02 10:23:40;;;;;;;2.17;2.00;;;25.00;75.60;;;;;;5053364;28;20453;-75
2022/09/02 10:26:20;;;;;;;1.97;1.73;;;25.20;75.60;;;;;;5053209;28;20672;-75
2022/09/02 10:29:16;;;;;;;2.20;1.80;;;25.40;75.40;;;;;;5053180;28;20454;-75
2022/09/02 10:31:56;;;;;;;2.90;1.90;;;25.40;74.10;;;;;;5053733;28;20458;-75
2022/09/02 10:34:31;;;;;;;1.97;1.73;;;25.50;74.40;;;;;;5047899;28;20461;-75
2022/09/02 10:37:11;;;;;;;2.07;1.83;;;25.80;72.60;;;;;;5040707;28;20457;-75
2022/09/02 10:39:57;;;;;;;3.10;2.27;;;25.90;72.70;;;;;;5041151;28;20469;-75
2022/09/02 10:42:40;;;;;;;2.90;1.73;;;26.00;72.90;;;;;;5039319;28;20866;-76
2022/09/02 10:45:14;;;;;;;2.53;2.20;;;26.20;71.50;;;;;;5031832;28;20495;-75
2022/09/02 10:47:41;;;;;;;2.80;2.00;;;26.30;72.60;;;;;;5031198;28;20461;-75
2022/09/02 10:50:19;;;;;;;1.93;1.90;;;26.40;70.40;;;;;;5032406;28;20463;-76
2022/09/02 10:53:08;;;;;;;2.03;1.90;;;26.40;72.10;;;;;;5032027;28;20458;-75
2022/09/02 10:55:44;;;;;;;2.30;2.03;;;26.40;71.40;;;;;;5032800;28;20863;-76
2022/09/02 10:58:18;;;;;;;2.80;1.90;;;26.50;71.90;;;;;;5032357;28;20458;-75
2022/09/02 11:00:50;;;;;;;1.87;1.73;;;26.70;72.20;;;;;;5032657;28;20462;-75
2022/09/02 11:03:23;;;;;;;3.37;1.80;;;26.90;70.10;;;;;;5032608;28;20490;-76
2022/09/02 11:05:54;;;;;;;2.03;1.80;;;27.00;69.10;;;;;;5032544;28;20922;-76
2022/09/02 11:08:27;;;;;;;2.37;1.90;;;27.10;69.40;;;;;;5015286;28;20459;-75
2022/09/02 11:11:03;;;;;;;2.13;1.80;;;27.20;68.80;;;;;;5032205;28;20832;-76
2022/09/02 11:13:38;;;;;;;1.90;1.70;;;27.30;69.40;;;;;;5032652;28;20544;-75
2022/09/02 11:16:14;;;;;;;1.80;1.60;;;27.50;69.10;;;;;;5032335;28;20481;-76
2022/09/02 11:18:50;;;;;;;2.23;1.80;;;27.60;68.20;;;;;;5032583;28;20458;-76
2022/09/02 11:21:29;;;;;;;2.40;1.90;;;27.70;68.90;;;;;;5032309;28;20470;-75
2022/09/02 11:24:02;;;;;;;2.27;1.80;;;28.00;68.60;;;;;;5032711;28;20570;-75
2022/09/02 11:26:37;;;;;;;3.17;2.10;;;28.20;67.80;;;;;;5032452;28;20463;-76
2022/09/02 11:29:12;;;;;;;2.33;1.90;;;28.50;65.50;;;;;;5032643;28;20465;-76
2022/09/02 11:31:44;;;;;;;2.97;2.10;;;28.50;64.80;;;;;;5037074;28;20523;-78
2022/09/02 11:34:26;;;;;;;2.73;2.10;;;28.70;65.50;;;;;;5052557;28;20458;-74
2022/09/02 11:36:56;;;;;;;2.90;2.20;;;28.80;66.30;;;;;;5054039;28;20485;-75
2022/09/02 11:39:33;;;;;;;2.80;2.10;;;29.00;66.60;;;;;;5053834;28;20450;-76
2022/09/02 11:42:14;;;;;;;3.30;2.10;;;29.10;65.80;;;;;;5051766;28;20461;-76
2022/09/02 11:44:58;;;;;;;2.17;1.87;;;29.20;64.30;;;;;;5051645;28;20489;-76
2022/09/02 11:47:50;;;;;;;2.10;1.90;;;29.40;65.00;;;;;;5049811;28;20449;-77
2022/09/02 11:50:45;;;;;;;2.50;1.90;;;29.40;64.10;;;;;;5051475;28;20450;-75
2022/09/02 11:53:21;;;;;;;2.33;2.00;;;29.50;65.60;;;;;;5051489;28;20460;-77
2022/09/02 11:55:52;;;;;;;2.20;1.90;;;29.80;63.90;;;;;;5051070;28;20485;-76
2022/09/02 11:58:38;;;;;;;1.90;1.80;;;30.00;64.50;;;;;;5051264;28;20531;-77
2022/09/02 12:01:23;;;;;;;2.40;2.10;;;30.20;63.10;;;;;;5051597;28;20533;-76
2022/09/02 12:03:58;;;;;;;2.47;1.80;;;30.30;62.50;;;;;;5051352;28;20551;-76
2022/09/02 12:06:31;;;;;;;1.80;1.80;;;30.40;64.10;;;;;;5051394;28;20453;-74
2022/09/02 12:09:09;;;;;;;2.47;2.13;;;30.50;64.10;;;;;;5043866;28;20453;-74
2022/09/02 12:11:48;;;;;;;2.17;1.93;;;30.50;62.60;;;;;;5037066;28;20791;-74
2022/09/02 12:15:07;;;;;;;2.13;1.90;;;30.50;63.00;;;;;;5041754;28;20454;-75
2022/09/02 12:17:37;;;;;;;2.70;2.13;;;30.60;63.50;;;;;;5037938;28;20501;-75
2022/09/02 12:20:10;;;;;;;2.53;2.10;;;30.80;62.90;;;;;;5040806;28;20450;-77
2022/09/02 12:22:41;;;;;;;2.80;2.50;;;30.80;62.60;;;;;;5044093;28;20545;-72
2022/09/02 12:25:46;;;;;;;3.00;2.27;;;31.20;61.90;;;;;;5055346;28;20457;-76
2022/09/02 12:28:23;;;;;;;5.53;3.17;;;31.10;61.00;;;;;;5055270;28;20460;-76
2022/09/02 12:31:41;;;;;;;2.73;2.00;;;31.20;60.40;;;;;;5034646;28;20458;-76
2022/09/02 12:34:44;;;;;;;2.13;1.97;;;31.20;61.50;;;;;;4974125;28;20608;-76
2022/09/02 12:37:50;;;;;;;2.33;2.00;;;31.40;62.20;;;;;;4973983;28;20509;-75
2022/09/02 12:40:26;;;;;;;2.90;2.20;;;31.30;61.40;;;;;;5054885;28;20453;-71
2022/09/02 12:42:58;;;;;;;2.50;2.10;;;30.90;62.70;;;;;;5055052;28;20462;-69
2022/09/02 12:45:28;;;;;;;2.67;2.00;;;30.90;62.10;;;;;;5055205;28;20454;-68
2022/09/02 12:48:01;;;;;;;2.30;2.03;;;31.00;63.00;;;;;;5037060;28;20449;-67
2022/09/02 12:50:34;;;;;;;2.23;1.80;;;31.10;62.10;;;;;;5055034;28;20453;-68
2022/09/02 12:53:24;;;;;;;2.53;2.00;;;30.90;62.80;;;;;;5055019;28;20536;-68
2022/09/02 12:55:58;;;;;;;2.27;1.83;;;30.90;63.70;;;;;;5054655;28;20496;-64
2022/09/02 12:58:26;;;;;;;3.40;2.23;;;30.70;62.70;;;;;;5054646;28;20450;-65
2022/09/02 13:01:01;;;;;;;2.57;2.10;;;30.70;63.90;;;;;;5037202;28;20832;-65
2022/09/02 13:03:50;;;;;;;2.77;2.40;;;30.60;64.10;;;;;;5054821;28;20461;-65
2022/09/02 13:06:25;;;;;;;4.00;2.27;;;30.60;64.40;;;;;;5054624;28;20501;-65
2022/09/02 13:09:23;;;;;;;2.53;2.17;;;30.70;64.00;;;;;;5054682;28;20857;-65
2022/09/02 13:12:24;;;;;;;2.37;2.00;;;30.50;62.90;;;;;;5051661;28;20465;-66
2022/09/02 13:15:02;;;;;;;2.80;2.30;;;30.60;63.00;;;;;;5053742;28;20453;-72